KBFM/BFM METAR and TAF weather

Enter ICAO airport designator
Station Type Date Time Source
KBFM METAR 2018/01/23 00:53 UTC NOAA

KBFM 230053Z 00000KT 7SM SCT002 OVC006 15/15 A2996 RMK AO2 SLP145 T01500150


Station Type Date Time Source
KBFM Decoded METAR 2018/01/23 00:53 UTC NOAA

MOBILE DOWNTOWN AIRPORT, AL, United States (KBFM) 30-38N 88-04W 20M
Jan 22, 2018 - 07:53 PM EST / 2018.01.23 0053 UTC
Wind: Calm:0
Visibility: 7 mile(s):0
Sky conditions: overcast
Temperature: 59.0 F (15.0 C)
Dew Point: 59.0 F (15.0 C)
Relative Humidity: 100%
Pressure (altimeter): 29.96 in. Hg (1014 hPa)
ob: KBFM 230053Z 00000KT 7SM SCT002 OVC006 15/15 A2996 RMK AO2 SLP145 T01500150
cycle: 1

Station Type Date Time Source
KBFM TAF 2018/01/23 01:54 UTC NOAA

TAF
AMD KBFM 230053Z 2301/2324 17004KT 3SM BR BKN002 OVC010
TEMPO 2301/2303 1/4SM FG VV002
FM230300 26006KT 4SM BR BKN025 BKN090
FM230600 30007KT P6SM SCT050 SCT250
FM231400 32012KT P6SM FEW050


Example: see airport list